Time;durP1;ratioP1;P1;durP2;ratioP2;P2;SDS_P1;SDS_P2;PMS_P1;PMS_P2;Temp;Humidity;BMP_temperature;BMP_pressure;BME280_temperature;BME280_humidity;BME280_pressure;Samples;Min_cycle;Max_cycle;Signal;HPM_P1;HPM_P2
2023/04/11 00:01:48;;;;;;;;;;;19.80;39.90;;;;;;5108388;27;19923;-59
2023/04/11 00:04:15;;;;;;;;;;;19.80;39.90;;;;;;5103884;28;20026;-59
2023/04/11 00:06:42;;;;;;;;;;;19.80;39.90;;;;;;5097834;28;20015;-59
2023/04/11 00:09:10;;;;;;;;;;;19.80;39.90;;;;;;5080937;28;19973;-59
2023/04/11 00:11:37;;;;;;;;;;;19.80;40.00;;;;;;5097344;28;19919;-59
2023/04/11 00:14:04;;;;;;;;;;;19.80;39.90;;;;;;5115217;28;19927;-59
2023/04/11 00:16:32;;;;;;;;;;;19.80;40.00;;;;;;5114829;28;20026;-59
2023/04/11 00:19:00;;;;;;;;;;;19.90;40.00;;;;;;5104385;27;19919;-60
2023/04/11 00:21:27;;;;;;;;;;;19.80;40.00;;;;;;5098997;28;19920;-59
2023/04/11 00:23:54;;;;;;;;;;;19.80;40.00;;;;;;5076092;28;19920;-59
2023/04/11 00:26:21;;;;;;;;;;;19.80;40.00;;;;;;5093379;28;19920;-59
2023/04/11 00:28:48;;;;;;;;;;;19.80;40.00;;;;;;5093939;28;19920;-59
2023/04/11 00:31:15;;;;;;;;;;;19.90;40.10;;;;;;5094228;28;20335;-58
2023/04/11 00:33:42;;;;;;;;;;;19.80;40.00;;;;;;5112207;27;19949;-60
2023/04/11 00:36:10;;;;;;;;;;;19.90;40.10;;;;;;5096876;27;20269;-59
2023/04/11 00:38:37;;;;;;;;;;;19.80;40.10;;;;;;5117201;27;19923;-59
2023/04/11 00:41:04;;;;;;;;;;;19.90;40.10;;;;;;5117626;27;19923;-58
2023/04/11 00:43:30;;;;;;;;;;;19.90;40.10;;;;;;5116907;27;19919;-59
2023/04/11 00:45:57;;;;;;;;;;;19.80;40.10;;;;;;5116995;27;20008;-59
2023/04/11 00:48:27;;;;;;;;;;;19.90;40.10;;;;;;5128621;27;19927;-59
2023/04/11 00:50:53;;;;;;;;;;;19.90;40.20;;;;;;5113634;28;19920;-59
2023/04/11 00:53:21;;;;;;;;;;;19.80;40.10;;;;;;5114801;28;19927;-59
2023/04/11 00:55:48;;;;;;;;;;;19.90;40.20;;;;;;5113384;28;19941;-59
2023/04/11 00:58:15;;;;;;;;;;;19.90;40.20;;;;;;5114139;28;19957;-59
2023/04/11 01:00:43;;;;;;;;;;;19.80;40.10;;;;;;5130894;27;19919;-59
2023/04/11 01:03:10;;;;;;;;;;;19.90;40.20;;;;;;5114502;28;20008;-59
2023/04/11 01:05:37;;;;;;;;;;;19.90;40.20;;;;;;5132254;27;20002;-58
2023/04/11 01:08:04;;;;;;;;;;;19.90;40.20;;;;;;5117437;27;19919;-59
2023/04/11 01:10:32;;;;;;;;;;;19.80;40.20;;;;;;5116622;27;19927;-59
2023/04/11 01:12:59;;;;;;;;;;;19.80;40.20;;;;;;5116659;27;19927;-59
2023/04/11 01:15:26;;;;;;;;;;;19.90;40.30;;;;;;5117030;27;19919;-60
2023/04/11 01:17:56;;;;;;;;;;;19.90;40.30;;;;;;5112683;27;19919;-60
2023/04/11 01:20:25;;;;;;;;;;;19.90;40.30;;;;;;5097097;28;20006;-60
2023/04/11 01:22:51;;;;;;;;;;;19.80;40.20;;;;;;5096629;28;20283;-60
2023/04/11 01:25:20;;;;;;;;;;;19.90;40.30;;;;;;5096067;28;19933;-59
2023/04/11 01:27:47;;;;;;;;;;;19.90;40.30;;;;;;5096762;28;19938;-59
2023/04/11 01:30:14;;;;;;;;;;;19.90;40.40;;;;;;5100290;28;19919;-59
2023/04/11 01:32:40;;;;;;;;;;;19.90;40.40;;;;;;5100271;28;19919;-60
2023/04/11 01:35:07;;;;;;;;;;;19.90;40.40;;;;;;5099905;28;19919;-60
2023/04/11 01:37:34;;;;;;;;;;;19.90;40.40;;;;;;5099994;28;19920;-60
2023/04/11 01:40:01;;;;;;;;;;;19.80;40.30;;;;;;5099773;28;19927;-59
2023/04/11 01:42:29;;;;;;;;;;;19.90;40.40;;;;;;5131947;27;19919;-60
2023/04/11 01:44:56;;;;;;;;;;;19.80;40.30;;;;;;5100552;28;19924;-60
2023/04/11 01:47:23;;;;;;;;;;;19.90;40.40;;;;;;5100594;28;19924;-60
2023/04/11 01:49:49;;;;;;;;;;;19.90;40.40;;;;;;5118211;28;19927;-59
2023/04/11 01:52:16;;;;;;;;;;;19.90;40.40;;;;;;5099801;28;19928;-59
2023/04/11 01:54:43;;;;;;;;;;;19.90;40.40;;;;;;5099422;27;19969;-59
2023/04/11 01:57:10;;;;;;;;;;;19.90;40.50;;;;;;5120379;27;19920;-59
2023/04/11 01:59:38;;;;;;;;;;;19.90;40.50;;;;;;5120717;27;19923;-61
2023/04/11 02:02:04;;;;;;;;;;;19.90;40.50;;;;;;5138426;27;19920;-59
2023/04/11 02:04:31;;;;;;;;;;;19.90;40.50;;;;;;5107021;28;19919;-59
2023/04/11 02:06:58;;;;;;;;;;;19.90;40.50;;;;;;5100427;28;19965;-59
2023/04/11 02:09:25;;;;;;;;;;;19.90;40.50;;;;;;5126880;27;19919;-59
2023/04/11 02:11:51;;;;;;;;;;;19.90;40.50;;;;;;5120514;27;19919;-59
2023/04/11 02:14:19;;;;;;;;;;;19.80;40.40;;;;;;5137931;27;19926;-59
2023/04/11 02:16:50;;;;;;;;;;;19.90;40.50;;;;;;5120679;27;19919;-60
2023/04/11 02:19:17;;;;;;;;;;;19.90;40.50;;;;;;5137131;27;19984;-59
2023/04/11 02:21:45;;;;;;;;;;;19.90;40.50;;;;;;5119807;27;19964;-59
2023/04/11 02:24:12;;;;;;;;;;;19.90;40.60;;;;;;5120463;27;19927;-59
2023/04/11 02:26:39;;;;;;;;;;;19.80;40.40;;;;;;5138068;27;19919;-60
2023/04/11 02:29:06;;;;;;;;;;;19.90;40.60;;;;;;5119487;27;19995;-59
2023/04/11 02:31:33;;;;;;;;;;;19.90;40.50;;;;;;5120532;27;19941;-59
2023/04/11 02:34:01;;;;;;;;;;;19.90;40.60;;;;;;5137964;27;19961;-59
2023/04/11 02:36:28;;;;;;;;;;;19.90;40.60;;;;;;5119525;27;19926;-60
2023/04/11 02:38:55;;;;;;;;;;;19.90;40.60;;;;;;5119249;27;19919;-59
2023/04/11 02:41:22;;;;;;;;;;;19.90;40.60;;;;;;5120325;27;19919;-59
2023/04/11 02:43:49;;;;;;;;;;;19.90;40.60;;;;;;5137762;27;19919;-59
2023/04/11 02:46:15;;;;;;;;;;;19.90;40.60;;;;;;5119194;27;19919;-60
2023/04/11 02:48:42;;;;;;;;;;;19.90;40.60;;;;;;5119543;27;20298;-59
2023/04/11 02:51:10;;;;;;;;;;;19.80;40.50;;;;;;5118722;27;19919;-59
2023/04/11 02:53:37;;;;;;;;;;;19.90;40.60;;;;;;5119594;27;19970;-60
2023/04/11 02:56:04;;;;;;;;;;;19.90;40.60;;;;;;5137105;27;19965;-60
2023/04/11 02:58:30;;;;;;;;;;;19.90;40.60;;;;;;5119043;27;19923;-61
2023/04/11 03:00:57;;;;;;;;;;;19.90;40.60;;;;;;5137196;27;19999;-60
2023/04/11 03:03:25;;;;;;;;;;;19.90;40.60;;;;;;5119385;27;19919;-60
2023/04/11 03:05:51;;;;;;;;;;;19.90;40.60;;;;;;5119131;27;19964;-60
2023/04/11 03:08:19;;;;;;;;;;;19.90;40.60;;;;;;5137267;27;19927;-59
2023/04/11 03:10:46;;;;;;;;;;;19.90;40.60;;;;;;5136071;27;19972;-59
2023/04/11 03:13:13;;;;;;;;;;;19.90;40.60;;;;;;5119042;27;19923;-60
2023/04/11 03:15:40;;;;;;;;;;;19.90;40.70;;;;;;5119268;27;19923;-60
2023/04/11 03:18:07;;;;;;;;;;;19.90;40.70;;;;;;5118668;27;19923;-59
2023/04/11 03:20:33;;;;;;;;;;;19.90;40.70;;;;;;5118690;27;19968;-60
2023/04/11 03:23:00;;;;;;;;;;;19.80;40.60;;;;;;5136805;27;19920;-60
2023/04/11 03:25:28;;;;;;;;;;;19.90;40.70;;;;;;5135655;27;20444;-60
2023/04/11 03:27:55;;;;;;;;;;;19.90;40.70;;;;;;5137095;27;19919;-60
2023/04/11 03:30:22;;;;;;;;;;;19.90;40.70;;;;;;5118564;27;19927;-60
2023/04/11 03:32:49;;;;;;;;;;;19.90;40.70;;;;;;5117223;27;19959;-60
2023/04/11 03:35:17;;;;;;;;;;;19.90;40.70;;;;;;5118425;27;20005;-60
2023/04/11 03:37:44;;;;;;;;;;;19.80;40.60;;;;;;5134948;27;20010;-60
2023/04/11 03:40:11;;;;;;;;;;;19.90;40.70;;;;;;5136685;27;19919;-60
2023/04/11 03:42:39;;;;;;;;;;;19.80;40.70;;;;;;5118753;27;19923;-60
2023/04/11 03:45:06;;;;;;;;;;;19.90;40.70;;;;;;5135830;27;19963;-60
2023/04/11 03:47:33;;;;;;;;;;;19.80;40.70;;;;;;5116375;27;19919;-59
2023/04/11 03:50:00;;;;;;;;;;;19.90;40.70;;;;;;5136436;27;19920;-59
2023/04/11 03:52:27;;;;;;;;;;;19.90;40.70;;;;;;5115791;27;19919;-59
2023/04/11 03:54:53;;;;;;;;;;;19.80;40.70;;;;;;5117842;27;19919;-58
2023/04/11 03:57:20;;;;;;;;;;;19.90;40.70;;;;;;5117949;27;19927;-58
2023/04/11 03:59:49;;;;;;;;;;;19.90;40.70;;;;;;5116222;27;19924;-59
2023/04/11 04:02:16;;;;;;;;;;;19.80;40.60;;;;;;5135464;27;19926;-58
2023/04/11 04:04:45;;;;;;;;;;;19.80;40.70;;;;;;5118470;27;20357;-58
2023/04/11 04:07:12;;;;;;;;;;;19.90;40.70;;;;;;5134612;27;19919;-58
2023/04/11 04:09:39;;;;;;;;;;;19.80;40.70;;;;;;5135764;27;19919;-58
2023/04/11 04:12:06;;;;;;;;;;;19.80;40.70;;;;;;5112381;28;19920;-59
2023/04/11 04:14:33;;;;;;;;;;;19.80;40.70;;;;;;5114237;28;19919;-59
2023/04/11 04:17:01;;;;;;;;;;;19.90;40.70;;;;;;5131193;27;19927;-59
2023/04/11 04:19:28;;;;;;;;;;;19.80;40.70;;;;;;5113943;28;20454;-58
2023/04/11 04:21:56;;;;;;;;;;;19.80;40.70;;;;;;5114952;28;19927;-58
2023/04/11 04:24:24;;;;;;;;;;;19.90;40.80;;;;;;5113639;28;19919;-58
2023/04/11 04:26:51;;;;;;;;;;;19.90;40.80;;;;;;5114012;28;19927;-58
2023/04/11 04:29:18;;;;;;;;;;;19.80;40.70;;;;;;5113867;28;19923;-59
2023/04/11 04:31:51;;;;;;;;;;;19.80;40.80;;;;;;5115078;28;19920;-59
2023/04/11 04:34:20;;;;;;;;;;;19.80;40.70;;;;;;5112874;28;19937;-59
2023/04/11 04:36:48;;;;;;;;;;;19.80;40.80;;;;;;5096725;28;19920;-58
2023/04/11 04:39:16;;;;;;;;;;;19.80;40.80;;;;;;5115243;28;19924;-59
2023/04/11 04:41:44;;;;;;;;;;;19.80;40.80;;;;;;5097393;28;20026;-59
2023/04/11 04:44:10;;;;;;;;;;;19.80;40.80;;;;;;5096930;28;19965;-58
2023/04/11 04:46:37;;;;;;;;;;;19.80;40.80;;;;;;5114552;28;20026;-60
2023/04/11 04:49:04;;;;;;;;;;;19.90;40.90;;;;;;5096293;28;19992;-58
2023/04/11 04:51:32;;;;;;;;;;;19.80;40.80;;;;;;5113212;28;19927;-58
2023/04/11 04:53:59;;;;;;;;;;;19.80;40.80;;;;;;5097354;28;19920;-58
2023/04/11 04:56:27;;;;;;;;;;;19.80;40.80;;;;;;5114960;28;19920;-58
2023/04/11 04:58:54;;;;;;;;;;;19.80;40.80;;;;;;5111688;28;20345;-58
2023/04/11 05:01:21;;;;;;;;;;;19.80;40.80;;;;;;5097236;28;20003;-59
2023/04/11 05:03:49;;;;;;;;;;;19.80;40.80;;;;;;5114733;28;19920;-59
2023/04/11 05:06:16;;;;;;;;;;;19.80;40.80;;;;;;5113548;28;20025;-59
2023/04/11 05:08:44;;;;;;;;;;;19.90;40.90;;;;;;5096197;28;19927;-59
2023/04/11 05:11:11;;;;;;;;;;;19.80;40.80;;;;;;5096250;28;19920;-59
2023/04/11 05:13:38;;;;;;;;;;;19.90;40.80;;;;;;5096708;28;19920;-60
2023/04/11 05:16:06;;;;;;;;;;;19.80;40.80;;;;;;5095940;28;19955;-59
2023/04/11 05:18:32;;;;;;;;;;;19.80;40.80;;;;;;5096821;28;19919;-60
2023/04/11 05:21:01;;;;;;;;;;;19.90;40.90;;;;;;5114142;28;19920;-59
2023/04/11 05:23:27;;;;;;;;;;;19.90;40.90;;;;;;5131959;28;20307;-58
2023/04/11 05:25:56;;;;;;;;;;;19.80;40.90;;;;;;5117640;28;20377;-58
2023/04/11 05:28:22;;;;;;;;;;;19.90;40.90;;;;;;5098210;28;19920;-58
2023/04/11 05:30:49;;;;;;;;;;;19.80;40.90;;;;;;5094400;28;19920;-58
2023/04/11 05:33:19;;;;;;;;;;;19.90;40.90;;;;;;5094776;28;19943;-59
2023/04/11 05:35:45;;;;;;;;;;;19.90;40.90;;;;;;5096350;28;20000;-59
2023/04/11 05:38:12;;;;;;;;;;;19.90;40.90;;;;;;5106889;28;19934;-59
2023/04/11 05:40:39;;;;;;;;;;;19.90;40.90;;;;;;5116419;28;19975;-59
2023/04/11 05:43:07;;;;;;;;;;;19.90;40.90;;;;;;5116793;28;19968;-59
2023/04/11 05:45:36;;;;;;;;;;;19.80;40.90;;;;;;5127841;28;19920;-59
2023/04/11 05:48:03;;;;;;;;;;;19.90;40.90;;;;;;5093557;28;19919;-59
2023/04/11 05:50:30;;;;;;;;;;;19.90;40.90;;;;;;5110410;28;20018;-60
2023/04/11 05:52:56;;;;;;;;;;;19.90;40.90;;;;;;5093499;28;19970;-60
2023/04/11 05:55:26;;;;;;;;;;;19.80;40.80;;;;;;5110522;28;19920;-58
2023/04/11 05:57:53;;;;;;;;;;;19.80;40.80;;;;;;5111524;28;19926;-58
2023/04/11 06:00:23;;;;;;;;;;;19.90;40.90;;;;;;5110029;28;19969;-59
2023/04/11 06:02:50;;;;;;;;;;;19.80;40.80;;;;;;5099067;28;19924;-58
2023/04/11 06:05:17;;;;;;;;;;;19.90;40.90;;;;;;5091950;28;19920;-59
2023/04/11 06:07:44;;;;;;;;;;;19.80;40.80;;;;;;5093439;28;19924;-58
2023/04/11 06:10:11;;;;;;;;;;;19.90;40.80;;;;;;5108173;28;19920;-58
2023/04/11 06:12:37;;;;;;;;;;;19.80;40.80;;;;;;5110110;28;19920;-59
2023/04/11 06:15:05;;;;;;;;;;;19.90;40.80;;;;;;5116814;27;19919;-58
2023/04/11 06:17:33;;;;;;;;;;;19.90;40.90;;;;;;5128660;27;19927;-58
2023/04/11 06:20:00;;;;;;;;;;;19.90;40.90;;;;;;5112471;28;19977;-58
2023/04/11 06:22:27;;;;;;;;;;;19.90;40.90;;;;;;5080470;28;19919;-58
2023/04/11 06:24:53;;;;;;;;;;;19.80;40.80;;;;;;5098639;28;19920;-58
2023/04/11 06:27:20;;;;;;;;;;;19.90;40.90;;;;;;5099235;28;19973;-58
2023/04/11 06:29:47;;;;;;;;;;;19.90;40.90;;;;;;5101367;28;19920;-59
2023/04/11 06:32:14;;;;;;;;;;;19.90;40.90;;;;;;5113080;28;19920;-59
2023/04/11 06:34:42;;;;;;;;;;;19.90;40.90;;;;;;5100982;28;19924;-59
2023/04/11 06:37:09;;;;;;;;;;;19.90;40.90;;;;;;5113431;28;19930;-59
2023/04/11 06:39:36;;;;;;;;;;;19.90;40.90;;;;;;5115808;28;19926;-59
2023/04/11 06:42:02;;;;;;;;;;;19.80;40.80;;;;;;5116821;28;19920;-59
2023/04/11 06:44:29;;;;;;;;;;;19.90;40.90;;;;;;5117338;28;19931;-59
2023/04/11 06:46:57;;;;;;;;;;;19.90;40.90;;;;;;5114522;28;19926;-59
2023/04/11 06:49:24;;;;;;;;;;;19.90;41.00;;;;;;5116864;28;19926;-59
2023/04/11 06:51:53;;;;;;;;;;;19.90;40.90;;;;;;5115812;28;19924;-59
2023/04/11 06:54:20;;;;;;;;;;;19.90;40.90;;;;;;5116615;28;19931;-59
2023/04/11 06:56:49;;;;;;;;;;;19.90;40.90;;;;;;5116503;28;19978;-59
2023/04/11 06:59:18;;;;;;;;;;;19.90;40.90;;;;;;5116597;28;19958;-59
2023/04/11 07:01:44;;;;;;;;;;;19.90;40.90;;;;;;5114351;28;19950;-59
2023/04/11 07:04:11;;;;;;;;;;;19.90;41.00;;;;;;5115645;28;19942;-59
2023/04/11 07:06:38;;;;;;;;;;;19.90;40.90;;;;;;5113708;28;19951;-59
2023/04/11 07:09:08;;;;;;;;;;;19.90;40.90;;;;;;5115077;28;19919;-59
2023/04/11 07:11:35;;;;;;;;;;;19.90;40.90;;;;;;5115487;28;19927;-59
2023/04/11 07:14:02;;;;;;;;;;;19.90;40.90;;;;;;5115521;28;19919;-59
2023/04/11 07:16:28;;;;;;;;;;;19.90;40.90;;;;;;5116045;28;19969;-59
2023/04/11 07:18:55;;;;;;;;;;;19.90;40.90;;;;;;5115435;28;19920;-59
2023/04/11 07:21:22;;;;;;;;;;;19.90;41.00;;;;;;5116699;28;19973;-59
2023/04/11 07:23:48;;;;;;;;;;;19.90;41.00;;;;;;5110068;28;19924;-59
2023/04/11 07:26:17;;;;;;;;;;;19.90;40.90;;;;;;5115401;28;19965;-59
2023/04/11 07:28:44;;;;;;;;;;;19.90;40.90;;;;;;5116690;28;19926;-59
2023/04/11 07:31:11;;;;;;;;;;;19.90;40.90;;;;;;5116124;28;19965;-59
2023/04/11 07:33:37;;;;;;;;;;;19.90;41.00;;;;;;5129276;27;19985;-59
2023/04/11 07:36:04;;;;;;;;;;;19.90;40.90;;;;;;5115938;28;20245;-59
2023/04/11 07:38:32;;;;;;;;;;;19.90;41.00;;;;;;5115068;28;19926;-59
2023/04/11 07:40:59;;;;;;;;;;;19.90;40.90;;;;;;5114860;28;20396;-59
2023/04/11 07:43:27;;;;;;;;;;;19.90;41.00;;;;;;5114901;28;19920;-59
2023/04/11 07:45:54;;;;;;;;;;;19.90;40.90;;;;;;5114788;28;19924;-59
2023/04/11 07:48:21;;;;;;;;;;;19.90;40.90;;;;;;5116056;28;19930;-59
2023/04/11 07:50:50;;;;;;;;;;;19.90;41.00;;;;;;5114369;28;20608;-59
2023/04/11 07:53:16;;;;;;;;;;;19.90;41.00;;;;;;5113033;28;20006;-59
2023/04/11 07:55:43;;;;;;;;;;;19.90;40.90;;;;;;5114468;28;19965;-59
2023/04/11 07:58:10;;;;;;;;;;;19.90;40.90;;;;;;5114540;28;19981;-59
2023/04/11 08:00:38;;;;;;;;;;;19.90;41.00;;;;;;5114743;28;19920;-59
2023/04/11 08:03:05;;;;;;;;;;;19.90;41.00;;;;;;5115209;28;19920;-59
2023/04/11 08:05:32;;;;;;;;;;;19.90;41.00;;;;;;5115974;28;19927;-59
2023/04/11 08:07:58;;;;;;;;;;;19.90;40.90;;;;;;5114136;28;19923;-59
2023/04/11 08:10:25;;;;;;;;;;;19.90;41.00;;;;;;5114393;28;19920;-59
2023/04/11 08:12:52;;;;;;;;;;;19.90;41.00;;;;;;5113827;28;20002;-59
2023/04/11 08:15:19;;;;;;;;;;;19.90;41.00;;;;;;5114460;28;19920;-59
2023/04/11 08:17:48;;;;;;;;;;;19.90;40.90;;;;;;5112605;28;19961;-59
2023/04/11 08:20:15;;;;;;;;;;;19.90;40.90;;;;;;5113680;28;20012;-59
2023/04/11 08:22:43;;;;;;;;;;;19.90;40.90;;;;;;5113488;28;19973;-59
2023/04/11 08:25:10;;;;;;;;;;;19.90;40.90;;;;;;5115302;28;20019;-58
2023/04/11 08:27:37;;;;;;;;;;;19.90;40.90;;;;;;5095308;28;19928;-58
2023/04/11 08:30:04;;;;;;;;;;;19.90;40.90;;;;;;5096880;28;19946;-59
2023/04/11 08:32:31;;;;;;;;;;;19.90;40.90;;;;;;5114640;28;19930;-59
2023/04/11 08:34:59;;;;;;;;;;;19.90;40.90;;;;;;5095552;28;19923;-59
2023/04/11 08:37:26;;;;;;;;;;;19.90;41.00;;;;;;5094766;28;19972;-59
2023/04/11 08:39:53;;;;;;;;;;;19.90;40.90;;;;;;5096358;28;19919;-59
2023/04/11 08:42:23;;;;;;;;;;;19.90;41.00;;;;;;5113180;28;19959;-58
2023/04/11 08:44:51;;;;;;;;;;;19.90;41.00;;;;;;5113898;28;19920;-58
2023/04/11 08:47:17;;;;;;;;;;;19.90;40.90;;;;;;5112288;28;19920;-60
2023/04/11 08:49:44;;;;;;;;;;;19.90;40.90;;;;;;5114226;28;19919;-60
2023/04/11 08:52:12;;;;;;;;;;;19.90;40.90;;;;;;5113258;28;19923;-60
2023/04/11 08:54:39;;;;;;;;;;;19.90;41.00;;;;;;5113680;28;19919;-58
2023/04/11 08:57:06;;;;;;;;;;;19.90;41.00;;;;;;5111833;28;19924;-58
2023/04/11 08:59:32;;;;;;;;;;;19.90;41.00;;;;;;5113614;28;20315;-58
2023/04/11 09:02:05;;;;;;;;;;;19.90;41.00;;;;;;5112391;28;19928;-59
2023/04/11 09:04:38;;;;;;;;;;;19.90;40.90;;;;;;5112613;28;20247;-58
2023/04/11 09:07:05;;;;;;;;;;;19.90;40.90;;;;;;5113643;28;20262;-58
2023/04/11 09:09:35;;;;;;;;;;;19.90;41.00;;;;;;5113140;28;19927;-58
2023/04/11 09:12:02;;;;;;;;;;;19.90;41.00;;;;;;5111933;28;20254;-58
2023/04/11 09:14:29;;;;;;;;;;;19.90;41.00;;;;;;5112844;28;19947;-59
2023/04/11 09:16:57;;;;;;;;;;;19.90;40.90;;;;;;5113332;28;19927;-59
2023/04/11 09:19:24;;;;;;;;;;;19.90;41.00;;;;;;5103019;28;19965;-59
2023/04/11 09:21:50;;;;;;;;;;;19.90;40.90;;;;;;5115639;27;19975;-59
2023/04/11 09:24:17;;;;;;;;;;;19.90;40.90;;;;;;5133311;27;19919;-59
2023/04/11 09:26:46;;;;;;;;;;;19.90;41.00;;;;;;5114211;28;19923;-59
2023/04/11 09:29:13;;;;;;;;;;;19.90;41.00;;;;;;5116562;28;19919;-59
2023/04/11 09:31:41;;;;;;;;;;;19.90;40.90;;;;;;5134050;28;19923;-59
2023/04/11 09:34:08;;;;;;;;;;;19.90;41.00;;;;;;5133332;28;20424;-59
2023/04/11 09:36:35;;;;;;;;;;;19.90;41.00;;;;;;5116168;27;19920;-59
2023/04/11 09:39:15;;;;;;;;;;;19.90;41.00;;;;;;5133458;28;20027;-59
2023/04/11 09:41:41;;;;;;;;;;;19.90;41.00;;;;;;5134814;28;19929;-59
2023/04/11 09:44:10;;;;;;;;;;;19.90;41.00;;;;;;5115054;28;19919;-59
2023/04/11 09:46:36;;;;;;;;;;;19.90;41.00;;;;;;5132263;28;19927;-59
2023/04/11 09:49:03;;;;;;;;;;;19.90;41.00;;;;;;5137081;27;19919;-59
2023/04/11 09:51:30;;;;;;;;;;;19.90;41.00;;;;;;5120442;27;19920;-60
2023/04/11 09:53:57;;;;;;;;;;;20.00;41.10;;;;;;5120646;27;19942;-59
2023/04/11 09:56:25;;;;;;;;;;;19.90;41.00;;;;;;5139238;27;19968;-59
2023/04/11 09:58:52;;;;;;;;;;;19.90;41.00;;;;;;5118949;27;19963;-59
2023/04/11 10:01:20;;;;;;;;;;;19.90;41.00;;;;;;5138343;27;19920;-57
2023/04/11 10:03:49;;;;;;;;;;;19.90;41.00;;;;;;5137797;27;19923;-59
2023/04/11 10:06:19;;;;;;;;;;;19.90;41.00;;;;;;5122551;27;19919;-57
2023/04/11 10:08:46;;;;;;;;;;;19.90;41.00;;;;;;5138674;27;20018;-60
2023/04/11 10:11:13;;;;;;;;;;;19.90;41.00;;;;;;5120502;27;19995;-60
2023/04/11 10:13:40;;;;;;;;;;;19.90;41.60;;;;;;5120747;27;20368;-60
2023/04/11 10:16:08;;;;;;;;;;;19.90;41.00;;;;;;5121081;27;19926;-59
2023/04/11 10:18:36;;;;;;;;;;;19.90;41.00;;;;;;5119053;27;20018;-59
2023/04/11 10:21:04;;;;;;;;;;;19.90;41.00;;;;;;5120415;27;19919;-57
2023/04/11 10:23:33;;;;;;;;;;;19.90;41.00;;;;;;5136288;27;19919;-60
2023/04/11 10:26:00;;;;;;;;;;;19.90;41.00;;;;;;5120082;27;19926;-60
2023/04/11 10:28:31;;;;;;;;;;;19.90;41.00;;;;;;5119694;27;19964;-60
2023/04/11 10:31:02;;;;;;;;;;;19.90;41.00;;;;;;5114592;28;19920;-60
2023/04/11 10:33:29;;;;;;;;;;;19.90;41.00;;;;;;5116185;28;20011;-60
2023/04/11 10:35:58;;;;;;;;;;;19.90;41.00;;;;;;5115996;28;19926;-60
2023/04/11 10:38:43;;;;;;;;;;;19.90;41.00;;;;;;5117462;27;19923;-60
2023/04/11 10:41:14;;;;;;;;;;;19.90;41.00;;;;;;5119376;27;19919;-60
2023/04/11 10:43:40;;;;;;;;;;;20.00;41.10;;;;;;5119872;27;19926;-60
2023/04/11 10:46:17;;;;;;;;;;;19.90;41.00;;;;;;5137444;27;19920;-60
2023/04/11 10:48:55;;;;;;;;;;;19.90;41.00;;;;;;5136627;27;19927;-59
2023/04/11 10:51:24;;;;;;;;;;;19.90;41.00;;;;;;5119701;27;19923;-59
2023/04/11 10:53:52;;;;;;;;;;;20.00;41.10;;;;;;5134841;27;19966;-59
2023/04/11 10:56:33;;;;;;;;;;;19.90;41.00;;;;;;5119796;27;20006;-59
2023/04/11 10:59:00;;;;;;;;;;;20.00;41.10;;;;;;5137278;27;19964;-59
2023/04/11 11:01:27;;;;;;;;;;;20.00;41.10;;;;;;5135909;27;19919;-59
2023/04/11 11:03:55;;;;;;;;;;;20.00;41.10;;;;;;5116369;27;19963;-59
2023/04/11 11:06:22;;;;;;;;;;;20.00;41.10;;;;;;5117183;27;19931;-59
2023/04/11 11:08:50;;;;;;;;;;;20.00;41.10;;;;;;5134893;27;19945;-59
2023/04/11 11:11:18;;;;;;;;;;;20.00;41.10;;;;;;5130985;27;19934;-59
2023/04/11 11:13:45;;;;;;;;;;;20.00;41.10;;;;;;5112175;28;19920;-59
2023/04/11 11:16:13;;;;;;;;;;;20.00;41.10;;;;;;5116442;27;20018;-59
2023/04/11 11:18:40;;;;;;;;;;;20.00;41.10;;;;;;5096309;28;19923;-59
2023/04/11 11:21:07;;;;;;;;;;;20.00;41.10;;;;;;5106642;27;20014;-59
2023/04/11 11:23:34;;;;;;;;;;;20.00;41.10;;;;;;5115811;27;19927;-58
2023/04/11 11:26:03;;;;;;;;;;;20.00;41.10;;;;;;5134816;27;19924;-58
2023/04/11 11:28:30;;;;;;;;;;;20.00;41.20;;;;;;5133133;27;19920;-58
2023/04/11 11:30:57;;;;;;;;;;;20.00;41.10;;;;;;5116140;27;19920;-60
2023/04/11 11:33:25;;;;;;;;;;;20.00;41.10;;;;;;5114884;27;19926;-60
2023/04/11 11:35:52;;;;;;;;;;;20.00;41.10;;;;;;5111817;28;19919;-60
2023/04/11 11:38:19;;;;;;;;;;;20.00;41.10;;;;;;5112290;28;19958;-58
2023/04/11 11:40:46;;;;;;;;;;;20.00;41.10;;;;;;5112164;28;19920;-58
2023/04/11 11:43:15;;;;;;;;;;;20.00;41.20;;;;;;5112610;28;19973;-58
2023/04/11 11:45:41;;;;;;;;;;;20.00;41.20;;;;;;5097111;28;19920;-58
2023/04/11 11:48:08;;;;;;;;;;;20.00;41.10;;;;;;5111802;28;19919;-59
2023/04/11 11:50:35;;;;;;;;;;;20.00;41.10;;;;;;5114352;27;19924;-59
2023/04/11 11:53:12;;;;;;;;;;;20.00;41.20;;;;;;5115010;27;19930;-60
2023/04/11 11:55:39;;;;;;;;;;;20.00;41.20;;;;;;5116727;27;20333;-59
2023/04/11 11:58:06;;;;;;;;;;;20.00;41.20;;;;;;5134068;27;19920;-60
2023/04/11 12:00:37;;;;;;;;;;;20.00;41.20;;;;;;5116328;27;20281;-59
2023/04/11 12:03:04;;;;;;;;;;;20.00;41.20;;;;;;5114777;27;20377;-58
2023/04/11 12:05:31;;;;;;;;;;;20.00;41.10;;;;;;5115027;27;20047;-59
2023/04/11 12:07:58;;;;;;;;;;;20.00;41.10;;;;;;5099148;28;19919;-59
2023/04/11 12:10:26;;;;;;;;;;;20.00;41.20;;;;;;5112409;28;20014;-58
2023/04/11 12:12:53;;;;;;;;;;;20.00;41.20;;;;;;5102240;27;19975;-59
2023/04/11 12:15:20;;;;;;;;;;;20.00;41.10;;;;;;5115964;27;19919;-59
2023/04/11 12:17:49;;;;;;;;;;;20.00;41.20;;;;;;5115734;27;19919;-59
2023/04/11 12:20:16;;;;;;;;;;;20.00;41.20;;;;;;5132255;27;19942;-59
2023/04/11 12:22:42;;;;;;;;;;;20.00;41.20;;;;;;5131499;27;20340;-59
2023/04/11 12:25:10;;;;;;;;;;;20.00;41.20;;;;;;5114926;27;19919;-58
2023/04/11 12:27:37;;;;;;;;;;;20.00;41.20;;;;;;5133908;27;19920;-59
2023/04/11 12:30:04;;;;;;;;;;;20.00;41.20;;;;;;5101823;28;19924;-59
2023/04/11 12:32:32;;;;;;;;;;;20.00;41.20;;;;;;5076675;28;20257;-60
2023/04/11 12:35:00;;;;;;;;;;;20.00;41.20;;;;;;5088740;28;19926;-59
2023/04/11 12:37:27;;;;;;;;;;;20.00;41.20;;;;;;5111344;28;20014;-59
2023/04/11 12:39:54;;;;;;;;;;;20.00;41.20;;;;;;5130064;27;19946;-58
2023/04/11 12:42:21;;;;;;;;;;;20.00;41.20;;;;;;5105755;28;19926;-59
2023/04/11 12:44:47;;;;;;;;;;;20.00;41.20;;;;;;5115131;28;19923;-59
2023/04/11 12:47:14;;;;;;;;;;;20.00;41.20;;;;;;5095380;28;19924;-60
2023/04/11 12:49:41;;;;;;;;;;;20.00;41.20;;;;;;5108806;28;19919;-60
2023/04/11 12:52:09;;;;;;;;;;;20.00;41.20;;;;;;5112444;28;19920;-59
2023/04/11 12:54:36;;;;;;;;;;;20.00;41.20;;;;;;5110604;28;19924;-60
2023/04/11 12:57:02;;;;;;;;;;;20.00;41.20;;;;;;5121383;27;19919;-60
2023/04/11 12:59:29;;;;;;;;;;;20.00;41.20;;;;;;5096501;28;20426;-59
2023/04/11 13:01:56;;;;;;;;;;;20.00;41.20;;;;;;5102821;28;19977;-59
2023/04/11 13:04:23;;;;;;;;;;;20.00;41.20;;;;;;5111532;28;19927;-59
2023/04/11 13:06:51;;;;;;;;;;;20.00;41.20;;;;;;5129336;27;19920;-59
2023/04/11 13:09:19;;;;;;;;;;;20.00;41.20;;;;;;5130578;27;19927;-59
2023/04/11 13:11:46;;;;;;;;;;;20.00;41.20;;;;;;5114733;28;20306;-59
2023/04/11 13:14:13;;;;;;;;;;;20.00;41.20;;;;;;5113513;28;19919;-59
2023/04/11 13:16:40;;;;;;;;;;;20.00;41.20;;;;;;5113372;28;19927;-59
2023/04/11 13:19:06;;;;;;;;;;;20.00;41.20;;;;;;5109556;28;19973;-59
2023/04/11 13:21:33;;;;;;;;;;;20.00;41.20;;;;;;5110960;28;19919;-59
2023/04/11 13:24:00;;;;;;;;;;;20.00;41.20;;;;;;5111621;28;19923;-59
2023/04/11 13:26:28;;;;;;;;;;;20.00;41.20;;;;;;5110010;28;19919;-59
2023/04/11 13:28:55;;;;;;;;;;;20.00;41.20;;;;;;5114798;28;19938;-59
2023/04/11 13:31:25;;;;;;;;;;;20.00;41.20;;;;;;5112221;28;19927;-59
2023/04/11 13:33:52;;;;;;;;;;;20.00;41.20;;;;;;5111591;28;19920;-59
2023/04/11 13:36:18;;;;;;;;;;;20.00;41.20;;;;;;5111933;28;19924;-59
2023/04/11 13:38:46;;;;;;;;;;;20.00;41.20;;;;;;5111409;28;19949;-58
2023/04/11 13:41:13;;;;;;;;;;;20.00;41.80;;;;;;5111680;28;19928;-59
2023/04/11 13:43:41;;;;;;;;;;;20.00;41.20;;;;;;5112044;28;20039;-58
2023/04/11 13:46:08;;;;;;;;;;;20.00;41.20;;;;;;5131096;28;19928;-59
2023/04/11 13:48:35;;;;;;;;;;;20.00;41.20;;;;;;5111456;28;19924;-60
2023/04/11 13:51:03;;;;;;;;;;;20.00;41.20;;;;;;5111410;28;20023;-59
2023/04/11 13:53:29;;;;;;;;;;;20.00;41.20;;;;;;5111955;28;19923;-59
2023/04/11 13:55:56;;;;;;;;;;;20.00;41.20;;;;;;5112018;28;19969;-58
2023/04/11 13:58:23;;;;;;;;;;;20.00;41.20;;;;;;5111174;28;19965;-59
2023/04/11 14:00:51;;;;;;;;;;;20.00;41.20;;;;;;5110135;28;19965;-59
2023/04/11 14:03:18;;;;;;;;;;;20.00;41.20;;;;;;5113077;28;19920;-59
2023/04/11 14:05:44;;;;;;;;;;;20.00;41.20;;;;;;5110778;28;20410;-60
2023/04/11 14:08:11;;;;;;;;;;;20.00;41.20;;;;;;5112602;28;19920;-60
2023/04/11 14:10:38;;;;;;;;;;;20.00;41.20;;;;;;5111782;28;19923;-60
2023/04/11 14:13:05;;;;;;;;;;;20.00;41.20;;;;;;5110693;28;19924;-59
2023/04/11 14:15:32;;;;;;;;;;;20.00;41.40;;;;;;5110279;28;19946;-58
2023/04/11 14:18:00;;;;;;;;;;;20.00;41.20;;;;;;5102816;28;19924;-59